sensor_id;sensor_type;location;lat;lon;timestamp;temperature;humidity
16283;DHT22;8249;48.708;9.030;2023-04-24T00:01:41;10.60;99.90
16283;DHT22;8249;48.708;9.030;2023-04-24T00:04:08;10.60;99.90
16283;DHT22;8249;48.708;9.030;2023-04-24T00:06:36;10.60;99.90
16283;DHT22;8249;48.708;9.030;2023-04-24T00:09:04;10.60;99.90
16283;DHT22;8249;48.708;9.030;2023-04-24T00:11:31;10.60;99.90
16283;DHT22;8249;48.708;9.030;2023-04-24T00:14:00;10.70;99.90
16283;DHT22;8249;48.708;9.030;2023-04-24T00:16:27;10.70;99.90
16283;DHT22;8249;48.708;9.030;2023-04-24T00:18:54;10.70;99.90
16283;DHT22;8249;48.708;9.030;2023-04-24T00:21:21;10.70;99.90
16283;DHT22;8249;48.708;9.030;2023-04-24T00:23:51;10.70;99.90
16283;DHT22;8249;48.708;9.030;2023-04-24T00:26:18;10.70;99.90
16283;DHT22;8249;48.708;9.030;2023-04-24T00:28:45;10.70;99.90
16283;DHT22;8249;48.708;9.030;2023-04-24T00:31:13;10.70;99.90
16283;DHT22;8249;48.708;9.030;2023-04-24T00:33:40;10.70;99.90
16283;DHT22;8249;48.708;9.030;2023-04-24T00:36:08;10.70;99.90
16283;DHT22;8249;48.708;9.030;2023-04-24T00:38:35;10.70;99.90
16283;DHT22;8249;48.708;9.030;2023-04-24T00:41:02;10.70;99.90
16283;DHT22;8249;48.708;9.030;2023-04-24T00:43:29;10.70;99.90
16283;DHT22;8249;48.708;9.030;2023-04-24T00:45:57;10.70;99.90
16283;DHT22;8249;48.708;9.030;2023-04-24T00:48:26;10.70;99.90
16283;DHT22;8249;48.708;9.030;2023-04-24T00:50:54;10.70;99.90
16283;DHT22;8249;48.708;9.030;2023-04-24T00:53:21;10.70;99.90
16283;DHT22;8249;48.708;9.030;2023-04-24T00:55:48;10.70;99.90
16283;DHT22;8249;48.708;9.030;2023-04-24T00:58:16;10.70;99.90
16283;DHT22;8249;48.708;9.030;2023-04-24T01:00:43;10.70;99.90
16283;DHT22;8249;48.708;9.030;2023-04-24T01:03:12;10.80;99.90
16283;DHT22;8249;48.708;9.030;2023-04-24T01:05:41;10.80;99.90
16283;DHT22;8249;48.708;9.030;2023-04-24T01:08:09;10.80;99.90
16283;DHT22;8249;48.708;9.030;2023-04-24T01:10:39;10.80;99.90
16283;DHT22;8249;48.708;9.030;2023-04-24T01:13:08;10.80;99.90
16283;DHT22;8249;48.708;9.030;2023-04-24T01:15:35;10.80;99.90
16283;DHT22;8249;48.708;9.030;2023-04-24T01:18:02;10.80;99.90
16283;DHT22;8249;48.708;9.030;2023-04-24T01:20:30;10.80;99.90
16283;DHT22;8249;48.708;9.030;2023-04-24T01:22:58;10.80;99.90
16283;DHT22;8249;48.708;9.030;2023-04-24T01:25:26;10.70;99.90
16283;DHT22;8249;48.708;9.030;2023-04-24T01:27:56;10.70;99.90
16283;DHT22;8249;48.708;9.030;2023-04-24T01:30:23;10.70;99.90
16283;DHT22;8249;48.708;9.030;2023-04-24T01:32:51;10.60;99.90
16283;DHT22;8249;48.708;9.030;2023-04-24T01:35:18;10.60;99.90
16283;DHT22;8249;48.708;9.030;2023-04-24T01:37:45;10.60;99.90
16283;DHT22;8249;48.708;9.030;2023-04-24T01:40:14;10.60;99.90
16283;DHT22;8249;48.708;9.030;2023-04-24T01:42:41;10.60;99.90
16283;DHT22;8249;48.708;9.030;2023-04-24T01:45:11;10.60;99.90
16283;DHT22;8249;48.708;9.030;2023-04-24T01:47:38;10.70;99.90
16283;DHT22;8249;48.708;9.030;2023-04-24T01:50:07;10.60;99.90
16283;DHT22;8249;48.708;9.030;2023-04-24T01:52:34;10.60;99.90
16283;DHT22;8249;48.708;9.030;2023-04-24T01:55:01;10.60;99.90
16283;DHT22;8249;48.708;9.030;2023-04-24T01:57:31;10.60;99.90
16283;DHT22;8249;48.708;9.030;2023-04-24T01:59:58;10.70;99.90
16283;DHT22;8249;48.708;9.030;2023-04-24T02:02:25;10.60;99.90
16283;DHT22;8249;48.708;9.030;2023-04-24T02:04:53;10.60;99.90
16283;DHT22;8249;48.708;9.030;2023-04-24T02:07:20;10.50;99.90
16283;DHT22;8249;48.708;9.030;2023-04-24T02:09:47;10.50;99.90
16283;DHT22;8249;48.708;9.030;2023-04-24T02:12:14;10.50;99.90
16283;DHT22;8249;48.708;9.030;2023-04-24T02:14:43;10.50;99.90
16283;DHT22;8249;48.708;9.030;2023-04-24T02:17:10;10.40;99.90
16283;DHT22;8249;48.708;9.030;2023-04-24T02:19:38;10.40;99.90
16283;DHT22;8249;48.708;9.030;2023-04-24T02:22:05;10.40;99.90
16283;DHT22;8249;48.708;9.030;2023-04-24T02:24:33;10.30;99.90
16283;DHT22;8249;48.708;9.030;2023-04-24T02:27:00;10.30;99.90
16283;DHT22;8249;48.708;9.030;2023-04-24T02:29:28;10.30;99.90
16283;DHT22;8249;48.708;9.030;2023-04-24T02:31:56;10.40;99.90
16283;DHT22;8249;48.708;9.030;2023-04-24T02:34:24;10.40;99.90
16283;DHT22;8249;48.708;9.030;2023-04-24T02:36:51;10.40;99.90
16283;DHT22;8249;48.708;9.030;2023-04-24T02:39:19;10.40;99.90
16283;DHT22;8249;48.708;9.030;2023-04-24T02:41:46;10.40;99.90
16283;DHT22;8249;48.708;9.030;2023-04-24T02:44:14;10.30;99.90
16283;DHT22;8249;48.708;9.030;2023-04-24T02:46:43;10.30;99.90
16283;DHT22;8249;48.708;9.030;2023-04-24T02:49:11;10.30;99.90
16283;DHT22;8249;48.708;9.030;2023-04-24T02:51:38;10.30;99.90
16283;DHT22;8249;48.708;9.030;2023-04-24T02:54:07;10.30;99.90
16283;DHT22;8249;48.708;9.030;2023-04-24T02:56:35;10.30;99.90
16283;DHT22;8249;48.708;9.030;2023-04-24T02:59:03;10.20;99.90
16283;DHT22;8249;48.708;9.030;2023-04-24T03:01:30;10.20;99.90
16283;DHT22;8249;48.708;9.030;2023-04-24T03:03:56;10.20;99.90
16283;DHT22;8249;48.708;9.030;2023-04-24T03:06:26;10.20;99.90
16283;DHT22;8249;48.708;9.030;2023-04-24T03:08:54;10.10;99.90
16283;DHT22;8249;48.708;9.030;2023-04-24T03:11:21;10.10;99.90
16283;DHT22;8249;48.708;9.030;2023-04-24T03:13:48;10.10;99.90
16283;DHT22;8249;48.708;9.030;2023-04-24T03:16:15;10.00;99.90
16283;DHT22;8249;48.708;9.030;2023-04-24T03:18:42;9.90;99.90
16283;DHT22;8249;48.708;9.030;2023-04-24T03:21:09;9.90;99.90
16283;DHT22;8249;48.708;9.030;2023-04-24T03:23:37;9.90;99.90
16283;DHT22;8249;48.708;9.030;2023-04-24T03:26:05;9.90;99.90
16283;DHT22;8249;48.708;9.030;2023-04-24T03:28:33;9.90;99.90
16283;DHT22;8249;48.708;9.030;2023-04-24T03:31:03;10.00;99.90
16283;DHT22;8249;48.708;9.030;2023-04-24T03:33:33;9.90;99.90
16283;DHT22;8249;48.708;9.030;2023-04-24T03:36:01;9.90;99.90
16283;DHT22;8249;48.708;9.030;2023-04-24T03:38:37;9.90;99.90
16283;DHT22;8249;48.708;9.030;2023-04-24T03:41:24;9.90;99.90
16283;DHT22;8249;48.708;9.030;2023-04-24T03:44:14;9.90;99.90
16283;DHT22;8249;48.708;9.030;2023-04-24T03:46:41;9.80;99.90
16283;DHT22;8249;48.708;9.030;2023-04-24T03:49:08;9.80;99.90
16283;DHT22;8249;48.708;9.030;2023-04-24T03:51:39;9.80;99.90
16283;DHT22;8249;48.708;9.030;2023-04-24T03:54:18;9.70;99.90
16283;DHT22;8249;48.708;9.030;2023-04-24T03:56:45;9.70;99.90
16283;DHT22;8249;48.708;9.030;2023-04-24T03:59:12;9.70;99.90
16283;DHT22;8249;48.708;9.030;2023-04-24T04:01:41;9.70;99.90
16283;DHT22;8249;48.708;9.030;2023-04-24T04:04:14;9.70;99.90
16283;DHT22;8249;48.708;9.030;2023-04-24T04:06:43;9.80;99.90
16283;DHT22;8249;48.708;9.030;2023-04-24T04:09:10;9.80;99.90
16283;DHT22;8249;48.708;9.030;2023-04-24T04:11:39;9.80;99.90
16283;DHT22;8249;48.708;9.030;2023-04-24T04:14:06;9.80;99.90
16283;DHT22;8249;48.708;9.030;2023-04-24T04:16:34;9.80;99.90
16283;DHT22;8249;48.708;9.030;2023-04-24T04:19:03;9.90;99.90
16283;DHT22;8249;48.708;9.030;2023-04-24T04:21:31;9.90;99.90
16283;DHT22;8249;48.708;9.030;2023-04-24T04:24:08;9.90;99.90
16283;DHT22;8249;48.708;9.030;2023-04-24T04:26:41;9.90;99.90
16283;DHT22;8249;48.708;9.030;2023-04-24T04:29:18;9.70;99.90
16283;DHT22;8249;48.708;9.030;2023-04-24T04:31:47;9.50;99.90
16283;DHT22;8249;48.708;9.030;2023-04-24T04:34:14;9.30;99.90
16283;DHT22;8249;48.708;9.030;2023-04-24T04:36:41;9.20;99.90
16283;DHT22;8249;48.708;9.030;2023-04-24T04:39:45;9.20;99.90
16283;DHT22;8249;48.708;9.030;2023-04-24T04:42:19;9.00;99.90
16283;DHT22;8249;48.708;9.030;2023-04-24T04:44:46;8.90;99.90
16283;DHT22;8249;48.708;9.030;2023-04-24T04:47:17;8.90;99.90
16283;DHT22;8249;48.708;9.030;2023-04-24T04:49:45;8.80;99.90
16283;DHT22;8249;48.708;9.030;2023-04-24T04:52:18;8.80;99.90
16283;DHT22;8249;48.708;9.030;2023-04-24T04:54:48;8.80;99.90
16283;DHT22;8249;48.708;9.030;2023-04-24T04:57:15;8.80;99.90
16283;DHT22;8249;48.708;9.030;2023-04-24T04:59:43;8.80;99.90
16283;DHT22;8249;48.708;9.030;2023-04-24T05:02:16;8.90;99.90
16283;DHT22;8249;48.708;9.030;2023-04-24T05:04:43;8.90;99.90
16283;DHT22;8249;48.708;9.030;2023-04-24T05:07:10;8.90;99.90
16283;DHT22;8249;48.708;9.030;2023-04-24T05:09:40;8.90;99.90
16283;DHT22;8249;48.708;9.030;2023-04-24T05:12:08;8.90;99.90
16283;DHT22;8249;48.708;9.030;2023-04-24T05:14:44;8.90;99.90
16283;DHT22;8249;48.708;9.030;2023-04-24T05:17:12;8.90;99.90
16283;DHT22;8249;48.708;9.030;2023-04-24T05:19:39;8.90;99.90
16283;DHT22;8249;48.708;9.030;2023-04-24T05:22:07;8.90;99.90
16283;DHT22;8249;48.708;9.030;2023-04-24T05:24:43;8.90;99.90
16283;DHT22;8249;48.708;9.030;2023-04-24T05:27:20;8.90;99.90
16283;DHT22;8249;48.708;9.030;2023-04-24T05:29:49;9.00;99.90
16283;DHT22;8249;48.708;9.030;2023-04-24T05:32:17;9.00;99.90
16283;DHT22;8249;48.708;9.030;2023-04-24T05:34:44;9.00;99.90
16283;DHT22;8249;48.708;9.030;2023-04-24T05:37:11;9.10;99.90
16283;DHT22;8249;48.708;9.030;2023-04-24T05:39:38;9.10;99.90
16283;DHT22;8249;48.708;9.030;2023-04-24T05:42:06;9.10;99.90
16283;DHT22;8249;48.708;9.030;2023-04-24T05:44:33;9.20;99.90
16283;DHT22;8249;48.708;9.030;2023-04-24T05:47:02;9.10;99.90
16283;DHT22;8249;48.708;9.030;2023-04-24T05:49:29;9.20;99.90
16283;DHT22;8249;48.708;9.030;2023-04-24T05:51:57;9.20;99.90
16283;DHT22;8249;48.708;9.030;2023-04-24T05:54:24;9.10;99.90
16283;DHT22;8249;48.708;9.030;2023-04-24T05:56:53;9.10;99.90
16283;DHT22;8249;48.708;9.030;2023-04-24T06:55:25;10.50;99.90
16283;DHT22;8249;48.708;9.030;2023-04-24T06:57:55;11.20;99.90
16283;DHT22;8249;48.708;9.030;2023-04-24T07:00:22;11.20;99.90
16283;DHT22;8249;48.708;9.030;2023-04-24T07:02:49;11.10;99.90
16283;DHT22;8249;48.708;9.030;2023-04-24T07:05:16;11.10;99.90
16283;DHT22;8249;48.708;9.030;2023-04-24T07:07:46;11.10;99.90
16283;DHT22;8249;48.708;9.030;2023-04-24T07:10:13;11.00;99.90
16283;DHT22;8249;48.708;9.030;2023-04-24T07:12:41;10.80;99.90
16283;DHT22;8249;48.708;9.030;2023-04-24T07:15:09;10.50;99.90
16283;DHT22;8249;48.708;9.030;2023-04-24T07:17:37;10.30;99.90
16283;DHT22;8249;48.708;9.030;2023-04-24T07:20:09;10.20;99.90
16283;DHT22;8249;48.708;9.030;2023-04-24T07:22:36;10.10;99.90
16283;DHT22;8249;48.708;9.030;2023-04-24T07:25:04;10.20;99.90
16283;DHT22;8249;48.708;9.030;2023-04-24T07:27:31;10.30;99.90
16283;DHT22;8249;48.708;9.030;2023-04-24T07:30:00;10.50;99.90
16283;DHT22;8249;48.708;9.030;2023-04-24T07:32:27;10.80;99.90
16283;DHT22;8249;48.708;9.030;2023-04-24T07:34:53;11.10;99.90
16283;DHT22;8249;48.708;9.030;2023-04-24T07:37:20;11.30;99.90
16283;DHT22;8249;48.708;9.030;2023-04-24T07:39:47;11.60;99.90
16283;DHT22;8249;48.708;9.030;2023-04-24T07:42:14;11.90;99.90
16283;DHT22;8249;48.708;9.030;2023-04-24T07:44:41;12.20;99.90
16283;DHT22;8249;48.708;9.030;2023-04-24T07:47:10;11.90;99.90
16283;DHT22;8249;48.708;9.030;2023-04-24T07:49:37;11.80;99.90
16283;DHT22;8249;48.708;9.030;2023-04-24T07:52:04;11.90;99.90
16283;DHT22;8249;48.708;9.030;2023-04-24T07:54:30;12.00;99.90
16283;DHT22;8249;48.708;9.030;2023-04-24T07:56:58;12.20;99.90
16283;DHT22;8249;48.708;9.030;2023-04-24T07:59:25;12.00;99.90
16283;DHT22;8249;48.708;9.030;2023-04-24T08:01:52;11.50;99.90
16283;DHT22;8249;48.708;9.030;2023-04-24T08:04:21;11.40;99.90
16283;DHT22;8249;48.708;9.030;2023-04-24T08:06:48;11.10;99.90
16283;DHT22;8249;48.708;9.030;2023-04-24T08:09:16;11.10;99.90
16283;DHT22;8249;48.708;9.030;2023-04-24T08:11:43;11.00;99.90
16283;DHT22;8249;48.708;9.030;2023-04-24T08:14:11;10.90;99.90
16283;DHT22;8249;48.708;9.030;2023-04-24T08:16:38;10.80;99.90
16283;DHT22;8249;48.708;9.030;2023-04-24T08:19:05;10.80;99.90
16283;DHT22;8249;48.708;9.030;2023-04-24T08:21:34;11.00;99.90
16283;DHT22;8249;48.708;9.030;2023-04-24T08:24:01;11.30;99.90
16283;DHT22;8249;48.708;9.030;2023-04-24T08:26:30;11.70;99.90
16283;DHT22;8249;48.708;9.030;2023-04-24T08:28:57;11.90;99.90
16283;DHT22;8249;48.708;9.030;2023-04-24T08:31:24;12.20;99.90
16283;DHT22;8249;48.708;9.030;2023-04-24T08:33:52;12.50;99.90
16283;DHT22;8249;48.708;9.030;2023-04-24T08:36:19;12.10;99.90
16283;DHT22;8249;48.708;9.030;2023-04-24T08:38:47;12.00;99.90
16283;DHT22;8249;48.708;9.030;2023-04-24T08:41:15;11.90;99.90
16283;DHT22;8249;48.708;9.030;2023-04-24T08:43:42;11.70;99.90
16283;DHT22;8249;48.708;9.030;2023-04-24T08:46:11;11.70;99.90
16283;DHT22;8249;48.708;9.030;2023-04-24T08:48:39;11.50;99.90
16283;DHT22;8249;48.708;9.030;2023-04-24T08:51:07;11.50;99.90
16283;DHT22;8249;48.708;9.030;2023-04-24T08:53:35;11.30;99.90
16283;DHT22;8249;48.708;9.030;2023-04-24T08:56:03;11.20;99.90
16283;DHT22;8249;48.708;9.030;2023-04-24T08:58:31;10.90;99.90
16283;DHT22;8249;48.708;9.030;2023-04-24T09:00:59;11.50;99.90
16283;DHT22;8249;48.708;9.030;2023-04-24T09:03:28;11.50;99.90
16283;DHT22;8249;48.708;9.030;2023-04-24T09:05:55;11.30;99.90
16283;DHT22;8249;48.708;9.030;2023-04-24T09:08:25;11.50;99.90
16283;DHT22;8249;48.708;9.030;2023-04-24T09:10:52;11.20;99.90
16283;DHT22;8249;48.708;9.030;2023-04-24T09:13:21;11.10;99.90
16283;DHT22;8249;48.708;9.030;2023-04-24T09:15:48;11.00;99.90
16283;DHT22;8249;48.708;9.030;2023-04-24T09:18:15;10.90;99.90
16283;DHT22;8249;48.708;9.030;2023-04-24T09:20:58;10.90;99.90
16283;DHT22;8249;48.708;9.030;2023-04-24T09:23:27;10.80;99.90
16283;DHT22;8249;48.708;9.030;2023-04-24T09:25:55;11.40;99.90
16283;DHT22;8249;48.708;9.030;2023-04-24T09:28:30;12.60;99.90
16283;DHT22;8249;48.708;9.030;2023-04-24T09:31:04;12.90;99.90
16283;DHT22;8249;48.708;9.030;2023-04-24T09:33:32;12.80;99.90
16283;DHT22;8249;48.708;9.030;2023-04-24T09:35:59;13.50;99.90
16283;DHT22;8249;48.708;9.030;2023-04-24T09:38:34;13.30;99.90
16283;DHT22;8249;48.708;9.030;2023-04-24T09:41:01;12.90;99.90
16283;DHT22;8249;48.708;9.030;2023-04-24T09:43:31;12.80;99.90
16283;DHT22;8249;48.708;9.030;2023-04-24T09:46:00;12.40;99.90
16283;DHT22;8249;48.708;9.030;2023-04-24T09:48:31;12.40;99.90
16283;DHT22;8249;48.708;9.030;2023-04-24T09:50:59;12.40;99.90
16283;DHT22;8249;48.708;9.030;2023-04-24T09:53:27;12.30;99.90
16283;DHT22;8249;48.708;9.030;2023-04-24T09:55:54;12.10;99.90
16283;DHT22;8249;48.708;9.030;2023-04-24T09:58:25;11.90;99.90
16283;DHT22;8249;48.708;9.030;2023-04-24T10:00:56;11.80;99.90
16283;DHT22;8249;48.708;9.030;2023-04-24T10:03:25;12.80;99.90
16283;DHT22;8249;48.708;9.030;2023-04-24T10:05:53;13.50;99.90
16283;DHT22;8249;48.708;9.030;2023-04-24T10:08:21;14.50;99.90
16283;DHT22;8249;48.708;9.030;2023-04-24T10:10:48;15.30;99.90
16283;DHT22;8249;48.708;9.030;2023-04-24T10:13:15;15.60;99.90
16283;DHT22;8249;48.708;9.030;2023-04-24T10:15:42;15.30;99.90
16283;DHT22;8249;48.708;9.030;2023-04-24T10:18:11;15.30;99.90
16283;DHT22;8249;48.708;9.030;2023-04-24T10:20:39;15.40;99.90
16283;DHT22;8249;48.708;9.030;2023-04-24T10:23:07;14.40;99.90
16283;DHT22;8249;48.708;9.030;2023-04-24T10:25:35;14.10;99.90
16283;DHT22;8249;48.708;9.030;2023-04-24T10:28:03;13.80;99.90
16283;DHT22;8249;48.708;9.030;2023-04-24T10:30:32;13.30;99.90
16283;DHT22;8249;48.708;9.030;2023-04-24T10:33:02;12.90;99.90
16283;DHT22;8249;48.708;9.030;2023-04-24T10:35:32;12.50;99.90
16283;DHT22;8249;48.708;9.030;2023-04-24T10:38:03;12.50;99.90
16283;DHT22;8249;48.708;9.030;2023-04-24T10:40:34;12.80;99.90
16283;DHT22;8249;48.708;9.030;2023-04-24T10:43:02;12.40;99.90
16283;DHT22;8249;48.708;9.030;2023-04-24T10:45:31;12.00;99.90
16283;DHT22;8249;48.708;9.030;2023-04-24T10:48:01;11.90;99.90
16283;DHT22;8249;48.708;9.030;2023-04-24T10:50:29;12.00;99.90
16283;DHT22;8249;48.708;9.030;2023-04-24T10:53:07;12.00;99.90
16283;DHT22;8249;48.708;9.030;2023-04-24T10:55:46;12.10;99.90
16283;DHT22;8249;48.708;9.030;2023-04-24T10:58:14;12.20;99.90
16283;DHT22;8249;48.708;9.030;2023-04-24T11:00:43;12.40;99.90
16283;DHT22;8249;48.708;9.030;2023-04-24T11:03:24;12.30;99.90
16283;DHT22;8249;48.708;9.030;2023-04-24T11:05:55;12.10;99.90
16283;DHT22;8249;48.708;9.030;2023-04-24T11:08:28;12.00;99.90
16283;DHT22;8249;48.708;9.030;2023-04-24T11:11:01;11.70;99.90
16283;DHT22;8249;48.708;9.030;2023-04-24T11:14:01;11.70;99.90
16283;DHT22;8249;48.708;9.030;2023-04-24T11:16:30;11.50;99.90
16283;DHT22;8249;48.708;9.030;2023-04-24T11:19:03;11.60;99.90
16283;DHT22;8249;48.708;9.030;2023-04-24T11:21:40;11.60;99.90
16283;DHT22;8249;48.708;9.030;2023-04-24T11:24:28;11.80;99.90
16283;DHT22;8249;48.708;9.030;2023-04-24T11:26:58;11.90;99.90
16283;DHT22;8249;48.708;9.030;2023-04-24T11:29:46;12.00;99.90
16283;DHT22;8249;48.708;9.030;2023-04-24T11:32:24;11.70;99.90
16283;DHT22;8249;48.708;9.030;2023-04-24T11:34:53;11.40;99.90
16283;DHT22;8249;48.708;9.030;2023-04-24T11:37:22;11.30;99.90
16283;DHT22;8249;48.708;9.030;2023-04-24T11:39:52;11.10;99.90
16283;DHT22;8249;48.708;9.030;2023-04-24T11:42:20;11.10;99.90
16283;DHT22;8249;48.708;9.030;2023-04-24T11:44:48;11.10;99.90
16283;DHT22;8249;48.708;9.030;2023-04-24T11:47:15;11.10;99.90
16283;DHT22;8249;48.708;9.030;2023-04-24T11:49:42;11.40;99.90
16283;DHT22;8249;48.708;9.030;2023-04-24T11:52:09;11.70;99.90
16283;DHT22;8249;48.708;9.030;2023-04-24T11:54:37;11.90;99.90
16283;DHT22;8249;48.708;9.030;2023-04-24T11:57:07;12.60;99.90
16283;DHT22;8249;48.708;9.030;2023-04-24T11:59:37;13.60;99.90
16283;DHT22;8249;48.708;9.030;2023-04-24T12:02:04;13.60;99.90
16283;DHT22;8249;48.708;9.030;2023-04-24T12:04:39;13.00;99.90
16283;DHT22;8249;48.708;9.030;2023-04-24T12:07:06;12.30;99.90
16283;DHT22;8249;48.708;9.030;2023-04-24T12:09:41;11.70;99.90
16283;DHT22;8249;48.708;9.030;2023-04-24T12:12:11;11.20;99.90
16283;DHT22;8249;48.708;9.030;2023-04-24T12:14:49;11.10;99.90
16283;DHT22;8249;48.708;9.030;2023-04-24T12:17:16;11.20;99.90
16283;DHT22;8249;48.708;9.030;2023-04-24T12:19:47;11.40;99.90
16283;DHT22;8249;48.708;9.030;2023-04-24T12:22:14;11.50;99.90
16283;DHT22;8249;48.708;9.030;2023-04-24T12:24:57;11.90;99.90
16283;DHT22;8249;48.708;9.030;2023-04-24T12:27:28;12.10;99.90
16283;DHT22;8249;48.708;9.030;2023-04-24T12:29:56;11.90;99.90
16283;DHT22;8249;48.708;9.030;2023-04-24T12:32:23;11.70;99.90
16283;DHT22;8249;48.708;9.030;2023-04-24T12:34:50;11.60;99.90
16283;DHT22;8249;48.708;9.030;2023-04-24T12:37:18;11.50;99.90
16283;DHT22;8249;48.708;9.030;2023-04-24T12:39:58;11.40;99.90
16283;DHT22;8249;48.708;9.030;2023-04-24T12:42:28;11.30;99.90
16283;DHT22;8249;48.708;9.030;2023-04-24T12:44:59;11.00;99.90
16283;DHT22;8249;48.708;9.030;2023-04-24T12:47:27;10.90;99.90
16283;DHT22;8249;48.708;9.030;2023-04-24T12:49:54;10.80;99.90
16283;DHT22;8249;48.708;9.030;2023-04-24T12:52:22;10.70;99.90
16283;DHT22;8249;48.708;9.030;2023-04-24T12:54:53;10.70;99.90
16283;DHT22;8249;48.708;9.030;2023-04-24T12:57:21;10.80;99.90
16283;DHT22;8249;48.708;9.030;2023-04-24T12:59:49;10.70;99.90
16283;DHT22;8249;48.708;9.030;2023-04-24T13:02:17;10.60;99.90
16283;DHT22;8249;48.708;9.030;2023-04-24T13:04:44;10.50;99.90
16283;DHT22;8249;48.708;9.030;2023-04-24T13:07:12;10.30;99.90
16283;DHT22;8249;48.708;9.030;2023-04-24T13:09:40;10.30;99.90
16283;DHT22;8249;48.708;9.030;2023-04-24T13:12:08;10.30;99.90
16283;DHT22;8249;48.708;9.030;2023-04-24T13:14:35;10.40;99.90
16283;DHT22;8249;48.708;9.030;2023-04-24T13:17:04;10.60;99.90
16283;DHT22;8249;48.708;9.030;2023-04-24T13:19:36;10.90;99.90
16283;DHT22;8249;48.708;9.030;2023-04-24T13:22:03;11.10;99.90
16283;DHT22;8249;48.708;9.030;2023-04-24T13:24:31;11.10;99.90
16283;DHT22;8249;48.708;9.030;2023-04-24T13:26:58;11.00;99.90
16283;DHT22;8249;48.708;9.030;2023-04-24T13:29:26;10.80;99.90
16283;DHT22;8249;48.708;9.030;2023-04-24T13:31:53;10.70;99.90
16283;DHT22;8249;48.708;9.030;2023-04-24T13:34:23;10.70;99.90
16283;DHT22;8249;48.708;9.030;2023-04-24T13:36:51;10.70;99.90
16283;DHT22;8249;48.708;9.030;2023-04-24T13:39:19;10.60;99.90
16283;DHT22;8249;48.708;9.030;2023-04-24T13:41:46;10.60;99.90
16283;DHT22;8249;48.708;9.030;2023-04-24T13:44:14;10.50;99.90
16283;DHT22;8249;48.708;9.030;2023-04-24T13:46:41;10.60;99.90
16283;DHT22;8249;48.708;9.030;2023-04-24T13:49:09;10.70;99.90
16283;DHT22;8249;48.708;9.030;2023-04-24T13:51:37;11.00;99.90
16283;DHT22;8249;48.708;9.030;2023-04-24T13:54:05;11.10;99.90
16283;DHT22;8249;48.708;9.030;2023-04-24T13:56:33;11.10;99.90
16283;DHT22;8249;48.708;9.030;2023-04-24T13:59:00;11.10;99.90
16283;DHT22;8249;48.708;9.030;2023-04-24T14:01:27;11.10;99.90
16283;DHT22;8249;48.708;9.030;2023-04-24T14:03:55;11.10;99.90
16283;DHT22;8249;48.708;9.030;2023-04-24T14:06:22;10.90;99.90
16283;DHT22;8249;48.708;9.030;2023-04-24T14:08:51;10.80;99.90
16283;DHT22;8249;48.708;9.030;2023-04-24T14:11:19;10.60;99.90
16283;DHT22;8249;48.708;9.030;2023-04-24T14:13:46;10.50;99.90
16283;DHT22;8249;48.708;9.030;2023-04-24T14:16:13;10.40;99.90
16283;DHT22;8249;48.708;9.030;2023-04-24T14:18:40;10.30;99.90
16283;DHT22;8249;48.708;9.030;2023-04-24T14:21:07;10.00;99.90
16283;DHT22;8249;48.708;9.030;2023-04-24T14:23:34;9.90;99.90
16283;DHT22;8249;48.708;9.030;2023-04-24T14:26:03;10.10;99.90
16283;DHT22;8249;48.708;9.030;2023-04-24T14:28:30;11.20;99.90
16283;DHT22;8249;48.708;9.030;2023-04-24T14:30:57;12.50;99.90
16283;DHT22;8249;48.708;9.030;2023-04-24T14:33:24;12.70;99.90
16283;DHT22;8249;48.708;9.030;2023-04-24T14:35:51;12.40;99.90
16283;DHT22;8249;48.708;9.030;2023-04-24T14:38:18;12.00;99.90
16283;DHT22;8249;48.708;9.030;2023-04-24T14:40:45;11.70;99.90
16283;DHT22;8249;48.708;9.030;2023-04-24T14:43:14;11.50;99.90
16283;DHT22;8249;48.708;9.030;2023-04-24T14:45:40;11.50;99.90
16283;DHT22;8249;48.708;9.030;2023-04-24T14:48:07;11.90;99.90
16283;DHT22;8249;48.708;9.030;2023-04-24T14:50:35;12.30;99.90
16283;DHT22;8249;48.708;9.030;2023-04-24T14:53:02;12.40;99.90
16283;DHT22;8249;48.708;9.030;2023-04-24T14:55:29;12.10;99.90
16283;DHT22;8249;48.708;9.030;2023-04-24T14:57:56;11.90;99.90
16283;DHT22;8249;48.708;9.030;2023-04-24T15:00:25;11.60;99.90
16283;DHT22;8249;48.708;9.030;2023-04-24T15:02:51;11.40;99.90
16283;DHT22;8249;48.708;9.030;2023-04-24T15:05:20;11.30;99.90
16283;DHT22;8249;48.708;9.030;2023-04-24T15:07:48;11.10;99.90
16283;DHT22;8249;48.708;9.030;2023-04-24T15:10:15;11.00;99.90
16283;DHT22;8249;48.708;9.030;2023-04-24T15:12:43;10.90;99.90
16283;DHT22;8249;48.708;9.030;2023-04-24T15:15:10;10.90;99.90
16283;DHT22;8249;48.708;9.030;2023-04-24T15:17:38;10.90;99.90
16283;DHT22;8249;48.708;9.030;2023-04-24T15:20:06;10.80;99.90
16283;DHT22;8249;48.708;9.030;2023-04-24T15:22:34;10.80;99.90
16283;DHT22;8249;48.708;9.030;2023-04-24T15:25:01;10.70;99.90
16283;DHT22;8249;48.708;9.030;2023-04-24T15:27:39;10.50;99.90
16283;DHT22;8249;48.708;9.030;2023-04-24T15:30:08;10.60;99.90
16283;DHT22;8249;48.708;9.030;2023-04-24T15:32:36;10.60;99.90
16283;DHT22;8249;48.708;9.030;2023-04-24T15:35:05;10.50;99.90
16283;DHT22;8249;48.708;9.030;2023-04-24T15:37:32;10.60;99.90
16283;DHT22;8249;48.708;9.030;2023-04-24T15:39:59;10.60;99.90
16283;DHT22;8249;48.708;9.030;2023-04-24T15:42:28;10.60;99.90
16283;DHT22;8249;48.708;9.030;2023-04-24T15:44:55;10.60;99.90
16283;DHT22;8249;48.708;9.030;2023-04-24T15:47:22;10.70;99.90
16283;DHT22;8249;48.708;9.030;2023-04-24T15:49:49;10.80;99.90
16283;DHT22;8249;48.708;9.030;2023-04-24T15:52:18;11.00;99.90
16283;DHT22;8249;48.708;9.030;2023-04-24T15:54:44;11.10;99.90
16283;DHT22;8249;48.708;9.030;2023-04-24T15:57:12;11.20;99.90
16283;DHT22;8249;48.708;9.030;2023-04-24T15:59:39;11.60;99.90
16283;DHT22;8249;48.708;9.030;2023-04-24T16:02:08;12.10;99.90
16283;DHT22;8249;48.708;9.030;2023-04-24T16:04:35;12.10;99.90
16283;DHT22;8249;48.708;9.030;2023-04-24T16:07:02;12.00;99.90
16283;DHT22;8249;48.708;9.030;2023-04-24T16:09:33;12.10;99.90
16283;DHT22;8249;48.708;9.030;2023-04-24T16:12:00;12.10;99.90
16283;DHT22;8249;48.708;9.030;2023-04-24T16:14:27;12.10;99.90
16283;DHT22;8249;48.708;9.030;2023-04-24T16:16:54;12.00;99.90
16283;DHT22;8249;48.708;9.030;2023-04-24T16:19:21;11.90;99.90
16283;DHT22;8249;48.708;9.030;2023-04-24T16:21:48;11.80;99.90
16283;DHT22;8249;48.708;9.030;2023-04-24T16:24:16;11.70;99.90
16283;DHT22;8249;48.708;9.030;2023-04-24T16:26:45;11.60;99.90
16283;DHT22;8249;48.708;9.030;2023-04-24T16:29:12;11.50;99.90
16283;DHT22;8249;48.708;9.030;2023-04-24T16:31:40;11.50;99.90
16283;DHT22;8249;48.708;9.030;2023-04-24T16:34:07;11.40;99.90
16283;DHT22;8249;48.708;9.030;2023-04-24T16:36:34;11.40;99.90
16283;DHT22;8249;48.708;9.030;2023-04-24T16:39:01;11.30;99.90
16283;DHT22;8249;48.708;9.030;2023-04-24T16:41:29;11.30;99.90
16283;DHT22;8249;48.708;9.030;2023-04-24T16:43:58;11.30;99.90
16283;DHT22;8249;48.708;9.030;2023-04-24T16:46:25;11.20;99.90
16283;DHT22;8249;48.708;9.030;2023-04-24T16:48:52;11.20;99.90
16283;DHT22;8249;48.708;9.030;2023-04-24T16:51:20;11.20;99.90
16283;DHT22;8249;48.708;9.030;2023-04-24T16:53:47;11.20;99.90
16283;DHT22;8249;48.708;9.030;2023-04-24T16:56:14;11.40;99.90